Aretxabaleta, Spain
Current Conditions -  °F | °C
As of 12:00 AM on Sunday 26 Oct 2014 (Local Time) from LEVT Reporting Station
Clear Clear  
Wind Chill: 52°   Ceiling: Unl
Heat Index: 52°   Visibility: 6mi
Dew Point: 48°   Wind: 1mph
Humidity: 88%   Direction: NA
Pressure: 30.24"   Gusts: NA
Location:  43.03°N, 2.5°W
Report Text: LEVT 252200Z VRB01KT CAVOK 11/09 Q1024
Loading
Personal Weather Stations






























Interactive Weather Map
Tropical Storm Tracking
New forecast layout! Learn more

10-Day Weather Forecast

Advertisements
Track Severe Weather on mobile